KHIE/HIE METAR and TAF weather

Enter ICAO airport designator
Station Type Date Time Source
KHIE METAR 2022/12/05 13:52 UTC NOAA

KHIE 051352Z AUTO 00000KT 10SM CLR M06/M08 A3015 RMK AO2 SLP231 T10561078


Station Type Date Time Source
KHIE Decoded METAR 2022/12/05 13:52 UTC NOAA

MT WASHINGTON REGIONAL AIRPORT , NH, United States (KHIE) 44-22N 71-33W 318M
Dec 05, 2022 - 08:52 AM EST / 2022.12.05 1352 UTC
Wind: Calm:0
Visibility: 10 mile(s):0
Sky conditions: clear
Temperature: 21.9 F (-5.6 C)
Dew Point: 18.0 F (-7.8 C)
Relative Humidity: 84%
Pressure (altimeter): 30.15 in. Hg (1020 hPa)
ob: KHIE 051352Z AUTO 00000KT 10SM CLR M06/M08 A3015 RMK AO2 SLP231 T10561078
cycle: 14

Station Type Date Time Source
KHIE TAF 2022/12/05 12:22 UTC NOAA

TAF KHIE 051120Z 0512/0612 00000KT P6SM FEW100
FM051400 21005KT P6SM SKC
FM052200 VRB03KT P6SM OVC150
FM060800 00000KT P6SM BKN050 OVC100

Example: see airport list